Time;durP1;ratioP1;P1;durP2;ratioP2;P2;SDS_P1;SDS_P2;PMS_P1;PMS_P2;Temp;Humidity;BMP_temperature;BMP_pressure;BME280_temperature;BME280_humidity;BME280_pressure;Samples;Min_cycle;Max_cycle;Signal;HPM_P1;HPM_P2
2022/10/18 00:01:02;;;;;;;4.20;3.95;;;;;;;;;;10461584;28;20276;-69
2022/10/18 00:06:03;;;;;;;6.90;4.13;;;;;;;;;;10461457;28;20224;-70
2022/10/18 00:11:04;;;;;;;4.97;4.57;;;;;;;;;;10462365;28;20831;-70
2022/10/18 00:16:10;;;;;;;7.65;4.70;;;;;;;;;;10461773;28;20701;-71
2022/10/18 00:21:12;;;;;;;4.97;4.28;;;;;;;;;;10461534;28;20217;-70
2022/10/18 00:26:15;;;;;;;5.70;4.85;;;;;;;;;;10453839;28;20889;-72
2022/10/18 00:31:19;;;;;;;5.07;4.65;;;;;;;;;;10458484;28;20275;-72
2022/10/18 00:36:20;;;;;;;6.57;5.25;;;;;;;;;;10461525;28;20234;-71
2022/10/18 00:41:23;;;;;;;5.20;4.90;;;;;;;;;;10461200;28;20223;-72
2022/10/18 00:46:25;;;;;;;5.63;5.18;;;;;;;;;;10458488;28;20229;-71
2022/10/18 00:51:28;;;;;;;6.40;5.80;;;;;;;;;;10455095;28;21214;-71
2022/10/18 00:56:30;;;;;;;8.43;5.88;;;;;;;;;;10458601;28;20229;-70
2022/10/18 01:01:31;;;;;;;6.25;5.65;;;;;;;;;;10460467;28;20214;-71
2022/10/18 01:06:33;;;;;;;8.52;6.05;;;;;;;;;;10460491;28;20237;-70
2022/10/18 01:11:37;;;;;;;9.13;6.45;;;;;;;;;;10461531;28;20228;-70
2022/10/18 01:16:49;;;;;;;18.17;7.07;;;;;;;;;;10460900;28;20305;-70
2022/10/18 01:21:55;;;;;;;8.45;7.15;;;;;;;;;;10454292;28;20992;-71
2022/10/18 01:27:14;;;;;;;11.10;7.47;;;;;;;;;;10456081;28;20313;-70
2022/10/18 01:32:18;;;;;;;9.98;6.53;;;;;;;;;;10461580;28;20210;-70
2022/10/18 01:37:21;;;;;;;6.88;6.18;;;;;;;;;;10459906;28;20254;-70
2022/10/18 01:42:22;;;;;;;6.88;6.18;;;;;;;;;;10456179;28;20246;-70
2022/10/18 01:47:23;;;;;;;7.05;5.45;;;;;;;;;;10465759;28;20688;-70
2022/10/18 01:52:24;;;;;;;10.45;6.03;;;;;;;;;;10467707;28;20224;-70
2022/10/18 01:57:34;;;;;;;11.95;6.38;;;;;;;;;;10463959;28;20733;-70
2022/10/18 02:02:35;;;;;;;7.32;6.55;;;;;;;;;;10460940;28;20972;-70
2022/10/18 02:07:41;;;;;;;6.90;5.63;;;;;;;;;;10446734;28;20247;-69
2022/10/18 02:12:43;;;;;;;6.80;6.13;;;;;;;;;;10461732;28;20268;-70
2022/10/18 02:17:45;;;;;;;8.55;6.50;;;;;;;;;;10467234;28;21254;-70
2022/10/18 02:22:48;;;;;;;7.68;6.35;;;;;;;;;;10466841;28;20219;-70
2022/10/18 02:27:49;;;;;;;8.68;6.75;;;;;;;;;;10464902;28;20732;-69
2022/10/18 02:32:56;;;;;;;10.90;6.47;;;;;;;;;;10467667;28;20214;-69
2022/10/18 02:37:58;;;;;;;7.93;6.20;;;;;;;;;;10467330;28;20223;-70
2022/10/18 02:42:59;;;;;;;8.90;5.95;;;;;;;;;;10459286;28;20268;-69
2022/10/18 02:48:00;;;;;;;11.55;6.45;;;;;;;;;;10462998;28;20248;-69
2022/10/18 02:53:03;;;;;;;10.88;6.47;;;;;;;;;;10465980;28;20221;-69
2022/10/18 02:58:04;;;;;;;9.45;6.75;;;;;;;;;;10460104;28;20257;-70
2022/10/18 03:03:05;;;;;;;7.75;5.57;;;;;;;;;;10462376;28;20218;-69
2022/10/18 03:08:06;;;;;;;7.72;5.88;;;;;;;;;;10463209;28;20241;-69
2022/10/18 03:13:07;;;;;;;6.15;5.55;;;;;;;;;;10454550;28;20233;-69
2022/10/18 03:18:08;;;;;;;5.03;4.55;;;;;;;;;;10455983;28;20221;-69
2022/10/18 03:23:09;;;;;;;4.65;4.28;;;;;;;;;;10462759;28;20271;-69
2022/10/18 03:28:10;;;;;;;5.20;4.13;;;;;;;;;;10463901;28;20222;-68
2022/10/18 03:33:11;;;;;;;4.70;3.83;;;;;;;;;;10462134;28;20207;-66
2022/10/18 03:38:12;;;;;;;4.85;3.50;;;;;;;;;;10464305;28;20202;-68
2022/10/18 03:43:14;;;;;;;5.43;3.70;;;;;;;;;;10461894;28;20257;-68
2022/10/18 03:48:15;;;;;;;3.28;3.08;;;;;;;;;;10457814;28;20739;-69
2022/10/18 03:53:16;;;;;;;4.85;3.50;;;;;;;;;;10461640;28;20703;-69
2022/10/18 03:58:17;;;;;;;3.78;3.45;;;;;;;;;;10459014;28;20243;-68
2022/10/18 04:03:18;;;;;;;4.63;4.22;;;;;;;;;;10459387;28;20213;-69
2022/10/18 04:08:19;;;;;;;7.93;3.80;;;;;;;;;;10459001;28;20311;-69
2022/10/18 04:13:20;;;;;;;5.53;5.13;;;;;;;;;;10460429;28;20214;-68
2022/10/18 04:18:22;;;;;;;5.10;4.65;;;;;;;;;;10461799;28;20233;-69
2022/10/18 04:23:23;;;;;;;4.70;4.40;;;;;;;;;;10459587;28;20221;-68
2022/10/18 04:28:24;;;;;;;4.38;3.97;;;;;;;;;;10459007;28;20694;-69
2022/10/18 04:33:25;;;;;;;5.00;4.50;;;;;;;;;;10457504;28;20817;-67
2022/10/18 04:38:26;;;;;;;4.75;4.25;;;;;;;;;;10454637;28;20219;-67
2022/10/18 04:43:27;;;;;;;4.63;4.10;;;;;;;;;;10456540;28;20273;-67
2022/10/18 04:48:28;;;;;;;8.82;4.32;;;;;;;;;;10453148;28;21200;-67
2022/10/18 04:53:29;;;;;;;8.90;4.43;;;;;;;;;;10454639;28;20716;-67
2022/10/18 04:58:30;;;;;;;4.10;3.83;;;;;;;;;;10455684;28;20218;-68
2022/10/18 05:03:31;;;;;;;5.13;4.63;;;;;;;;;;10450578;28;20803;-68
2022/10/18 05:08:34;;;;;;;6.25;4.32;;;;;;;;;;10447045;28;20225;-68
2022/10/18 05:13:37;;;;;;;4.40;3.60;;;;;;;;;;10453658;28;20219;-67
2022/10/18 05:18:38;;;;;;;3.58;3.08;;;;;;;;;;10451777;28;20612;-68
2022/10/18 05:23:39;;;;;;;4.57;4.20;;;;;;;;;;10453298;28;20970;-67
2022/10/18 05:28:40;;;;;;;5.20;2.83;;;;;;;;;;10456491;28;21189;-68
2022/10/18 05:33:41;;;;;;;4.05;3.50;;;;;;;;;;10464331;28;20207;-68
2022/10/18 05:38:44;;;;;;;4.60;3.67;;;;;;;;;;10467793;28;20214;-67
2022/10/18 05:43:45;;;;;;;4.88;4.00;;;;;;;;;;10465589;28;20234;-67
2022/10/18 05:48:49;;;;;;;8.88;3.92;;;;;;;;;;10454073;28;20227;-68
2022/10/18 05:53:51;;;;;;;6.28;4.22;;;;;;;;;;10461970;28;20288;-68
2022/10/18 05:58:52;;;;;;;4.72;3.90;;;;;;;;;;10458158;28;20222;-68
2022/10/18 06:03:54;;;;;;;6.30;3.72;;;;;;;;;;10462768;28;20218;-67
2022/10/18 06:08:55;;;;;;;4.90;4.40;;;;;;;;;;10454543;28;20695;-67
2022/10/18 06:14:00;;;;;;;7.68;5.05;;;;;;;;;;10455294;28;20210;-67
2022/10/18 06:19:01;;;;;;;6.00;5.38;;;;;;;;;;10457591;28;20222;-67
2022/10/18 06:24:02;;;;;;;6.95;5.13;;;;;;;;;;10458236;28;20276;-67
2022/10/18 06:29:03;;;;;;;6.88;5.55;;;;;;;;;;10458125;28;20218;-68
2022/10/18 06:34:04;;;;;;;11.77;6.35;;;;;;;;;;10461603;28;20218;-68
2022/10/18 06:39:06;;;;;;;10.43;5.97;;;;;;;;;;10455835;28;20214;-67
2022/10/18 06:44:13;;;;;;;6.07;5.20;;;;;;;;;;10453540;28;20233;-67
2022/10/18 06:49:14;;;;;;;6.25;5.63;;;;;;;;;;10457081;28;20226;-68
2022/10/18 06:54:16;;;;;;;6.75;5.18;;;;;;;;;;10459483;28;20614;-67
2022/10/18 06:59:17;;;;;;;10.63;5.68;;;;;;;;;;10457332;28;20568;-69
2022/10/18 07:04:18;;;;;;;8.98;5.63;;;;;;;;;;10456116;28;20209;-67
2022/10/18 07:09:19;;;;;;;5.97;4.95;;;;;;;;;;10456841;28;20233;-68
2022/10/18 07:14:20;;;;;;;5.82;5.30;;;;;;;;;;10457426;28;20238;-68
2022/10/18 07:19:21;;;;;;;8.95;6.05;;;;;;;;;;10455343;28;20218;-68
2022/10/18 07:24:22;;;;;;;9.70;6.05;;;;;;;;;;10452788;28;20222;-69
2022/10/18 07:29:24;;;;;;;7.85;6.30;;;;;;;;;;10451655;28;20214;-68
2022/10/18 07:34:25;;;;;;;9.82;6.05;;;;;;;;;;10452001;28;20751;-68
2022/10/18 07:39:26;;;;;;;10.13;6.65;;;;;;;;;;10455231;28;20309;-68
2022/10/18 07:44:27;;;;;;;9.35;6.18;;;;;;;;;;10457367;28;20230;-69
2022/10/18 07:49:28;;;;;;;7.55;5.85;;;;;;;;;;10455762;28;20367;-68
2022/10/18 07:54:29;;;;;;;8.70;6.00;;;;;;;;;;10454705;28;20235;-69
2022/10/18 07:59:30;;;;;;;8.15;6.38;;;;;;;;;;10457795;28;20222;-66
2022/10/18 08:04:31;;;;;;;12.88;7.07;;;;;;;;;;10451399;28;20222;-69
2022/10/18 08:09:33;;;;;;;9.30;6.40;;;;;;;;;;10454743;28;20296;-68
2022/10/18 08:14:34;;;;;;;8.40;6.25;;;;;;;;;;10453509;28;20329;-69
2022/10/18 08:19:35;;;;;;;11.32;6.88;;;;;;;;;;10453717;28;20219;-68
2022/10/18 08:24:36;;;;;;;10.40;6.60;;;;;;;;;;10456045;28;20215;-68
2022/10/18 08:29:37;;;;;;;9.95;6.20;;;;;;;;;;10452972;28;20225;-68
2022/10/18 08:34:38;;;;;;;8.30;6.55;;;;;;;;;;10451114;28;20237;-69
2022/10/18 08:39:39;;;;;;;11.52;7.10;;;;;;;;;;10455728;28;20253;-68
2022/10/18 08:44:46;;;;;;;9.65;5.72;;;;;;;;;;10446861;28;21021;-68
2022/10/18 08:49:49;;;;;;;8.27;5.65;;;;;;;;;;10457127;28;20604;-68
2022/10/18 08:55:00;;;;;;;11.63;6.85;;;;;;;;;;10456564;28;20297;-69
2022/10/18 09:00:05;;;;;;;10.68;6.43;;;;;;;;;;10459891;28;20222;-68
2022/10/18 09:05:20;;;;;;;8.75;6.18;;;;;;;;;;10457469;28;20266;-68
2022/10/18 09:10:29;;;;;;;12.25;7.15;;;;;;;;;;10452734;28;20241;-68
2022/10/18 09:15:39;;;;;;;6.03;5.45;;;;;;;;;;10453992;28;20317;-69
2022/10/18 09:20:54;;;;;;;6.20;5.30;;;;;;;;;;10460185;28;20317;-69
2022/10/18 09:26:01;;;;;;;8.93;6.28;;;;;;;;;;10454625;28;20206;-69
2022/10/18 09:31:05;;;;;;;10.35;6.50;;;;;;;;;;10455269;28;20227;-68
2022/10/18 09:36:08;;;;;;;7.55;5.68;;;;;;;;;;10453590;28;20218;-69
2022/10/18 09:41:26;;;;;;;9.40;6.03;;;;;;;;;;10454353;28;20227;-69
2022/10/18 09:46:31;;;;;;;8.75;5.82;;;;;;;;;;10453798;28;20288;-69
2022/10/18 09:51:40;;;;;;;5.72;5.13;;;;;;;;;;10457268;28;20230;-69
2022/10/18 09:56:51;;;;;;;7.78;5.20;;;;;;;;;;10449321;28;20301;-68
2022/10/18 10:01:52;;;;;;;4.85;4.35;;;;;;;;;;10455118;28;20228;-69
2022/10/18 10:06:54;;;;;;;7.45;5.60;;;;;;;;;;10454764;28;20241;-68
2022/10/18 10:11:55;;;;;;;7.82;5.97;;;;;;;;;;10467566;28;20221;-69
2022/10/18 10:17:20;;;;;;;7.07;4.65;;;;;;;;;;10460250;28;20240;-69
2022/10/18 10:22:26;;;;;;;6.93;4.70;;;;;;;;;;10461423;28;20220;-68
2022/10/18 10:27:29;;;;;;;5.55;4.20;;;;;;;;;;10458470;28;20230;-70
2022/10/18 10:32:32;;;;;;;5.57;4.28;;;;;;;;;;10458166;28;20682;-69
2022/10/18 10:37:34;;;;;;;4.78;4.03;;;;;;;;;;10460146;28;20241;-69
2022/10/18 10:42:38;;;;;;;4.57;4.05;;;;;;;;;;10459223;28;20732;-69
2022/10/18 10:47:39;;;;;;;4.78;4.38;;;;;;;;;;10460638;28;20231;-69
2022/10/18 10:52:42;;;;;;;6.20;4.88;;;;;;;;;;10459338;28;20681;-69
2022/10/18 10:57:47;;;;;;;8.30;5.15;;;;;;;;;;10457343;28;20226;-68
2022/10/18 11:02:48;;;;;;;8.27;6.25;;;;;;;;;;10459747;28;20222;-69
2022/10/18 11:07:51;;;;;;;8.00;6.03;;;;;;;;;;10459059;28;20280;-68
2022/10/18 11:12:53;;;;;;;10.32;7.22;;;;;;;;;;10455699;28;20218;-68
2022/10/18 11:18:00;;;;;;;9.15;6.20;;;;;;;;;;10454369;28;20217;-68
2022/10/18 11:23:03;;;;;;;10.75;5.93;;;;;;;;;;10461016;28;20222;-68
2022/10/18 11:28:13;;;;;;;7.40;5.85;;;;;;;;;;10461958;28;20223;-68
2022/10/18 11:33:33;;;;;;;9.98;6.35;;;;;;;;;;10457917;28;20206;-69
2022/10/18 11:38:41;;;;;;;7.75;6.07;;;;;;;;;;10459409;28;20220;-68
2022/10/18 11:43:45;;;;;;;8.95;6.15;;;;;;;;;;10453844;28;20349;-68
2022/10/18 11:48:51;;;;;;;11.05;6.63;;;;;;;;;;10454475;28;20225;-68
2022/10/18 11:53:59;;;;;;;8.38;7.03;;;;;;;;;;10458141;28;20229;-68
2022/10/18 11:59:08;;;;;;;9.02;6.88;;;;;;;;;;10454499;28;20218;-69
2022/10/18 12:04:21;;;;;;;8.77;6.65;;;;;;;;;;10458113;28;20685;-68
2022/10/18 12:09:29;;;;;;;11.55;6.88;;;;;;;;;;10460182;28;20756;-69
2022/10/18 12:14:34;;;;;;;8.00;6.47;;;;;;;;;;10438990;28;20296;-69
2022/10/18 12:19:36;;;;;;;6.60;5.47;;;;;;;;;;10455247;28;20226;-68
2022/10/18 12:24:37;;;;;;;11.88;6.40;;;;;;;;;;10452317;28;20225;-69
2022/10/18 12:30:00;;;;;;;7.00;4.93;;;;;;;;;;10454973;28;20273;-69
2022/10/18 12:35:06;;;;;;;10.75;5.75;;;;;;;;;;10453935;28;20602;-69
2022/10/18 12:40:13;;;;;;;5.97;4.88;;;;;;;;;;10456003;28;20222;-69
2022/10/18 12:45:33;;;;;;;8.85;5.07;;;;;;;;;;10455785;28;21009;-69
2022/10/18 12:50:38;;;;;;;6.72;5.03;;;;;;;;;;10456232;28;20227;-69
2022/10/18 12:55:40;;;;;;;5.32;3.75;;;;;;;;;;10450051;28;20230;-69
2022/10/18 13:00:41;;;;;;;4.25;3.85;;;;;;;;;;10452138;28;20215;-70
2022/10/18 13:05:49;;;;;;;4.47;3.55;;;;;;;;;;10450461;28;20304;-69
2022/10/18 13:11:10;;;;;;;2.80;2.53;;;;;;;;;;10459067;28;20241;-70
2022/10/18 13:16:31;;;;;;;3.15;2.92;;;;;;;;;;10452894;28;20215;-70
2022/10/18 13:21:45;;;;;;;5.05;2.80;;;;;;;;;;10456888;28;20237;-69
2022/10/18 13:26:46;;;;;;;4.97;3.13;;;;;;;;;;10454433;28;20218;-70
2022/10/18 13:31:56;;;;;;;4.30;3.13;;;;;;;;;;10453693;28;20230;-70
2022/10/18 13:36:59;;;;;;;5.45;3.45;;;;;;;;;;10446916;28;20241;-70
2022/10/18 13:42:00;;;;;;;8.25;2.47;;;;;;;;;;10457219;28;20238;-69
2022/10/18 13:47:01;;;;;;;3.30;3.08;;;;;;;;;;10460231;28;20223;-69
2022/10/18 13:52:02;;;;;;;5.93;3.20;;;;;;;;;;10464505;28;20214;-70
2022/10/18 13:57:24;;;;;;;4.25;3.75;;;;;;;;;;10460835;28;20218;-69
2022/10/18 14:02:33;;;;;;;5.85;3.40;;;;;;;;;;10445526;28;20327;-69
2022/10/18 14:07:35;;;;;;;3.03;2.47;;;;;;;;;;10455866;28;20218;-69
2022/10/18 14:12:47;;;;;;;4.07;2.38;;;;;;;;;;10460390;28;20281;-70
2022/10/18 14:17:53;;;;;;;2.45;2.25;;;;;;;;;;10462097;28;20214;-69
2022/10/18 14:23:15;;;;;;;3.70;3.40;;;;;;;;;;10460162;28;20218;-69
2022/10/18 14:28:20;;;;;;;6.72;3.00;;;;;;;;;;10464658;28;20219;-70
2022/10/18 14:33:24;;;;;;;3.95;2.85;;;;;;;;;;10466205;28;20214;-71
2022/10/18 14:38:25;;;;;;;4.07;2.75;;;;;;;;;;10459929;28;20225;-68
2022/10/18 14:43:26;;;;;;;2.60;2.50;;;;;;;;;;10465825;28;20268;-69
2022/10/18 14:48:27;;;;;;;7.28;2.35;;;;;;;;;;10457100;28;20219;-69
2022/10/18 14:53:36;;;;;;;9.00;2.55;;;;;;;;;;10459866;28;20719;-69
2022/10/18 14:58:37;;;;;;;7.25;2.75;;;;;;;;;;10461018;28;20227;-69
2022/10/18 15:03:38;;;;;;;7.18;2.15;;;;;;;;;;10444946;28;20313;-70
2022/10/18 15:08:40;;;;;;;4.00;2.47;;;;;;;;;;10457163;28;20284;-70
2022/10/18 15:13:55;;;;;;;2.00;1.83;;;;;;;;;;10460200;28;20253;-69
2022/10/18 15:19:00;;;;;;;2.83;2.35;;;;;;;;;;10462124;28;20241;-69
2022/10/18 15:24:31;;;;;;;3.25;1.88;;;;;;;;;;10460977;28;21038;-69
2022/10/18 15:29:35;;;;;;;3.70;2.55;;;;;;;;;;10451863;28;20304;-69
2022/10/18 15:34:36;;;;;;;3.40;2.20;;;;;;;;;;10458783;28;20628;-69
2022/10/18 15:39:37;;;;;;;2.40;2.20;;;;;;;;;;10460016;28;20245;-69
2022/10/18 15:44:50;;;;;;;2.83;2.22;;;;;;;;;;10458024;28;20234;-69
2022/10/18 15:49:56;;;;;;;3.10;2.55;;;;;;;;;;10452059;28;20307;-69
2022/10/18 15:55:00;;;;;;;3.15;1.63;;;;;;;;;;10456982;28;20762;-69
2022/10/18 16:00:03;;;;;;;7.32;1.77;;;;;;;;;;10457494;28;20221;-70
2022/10/18 16:05:17;;;;;;;4.65;1.27;;;;;;;;;;10456634;28;20292;-70
2022/10/18 16:10:19;;;;;;;6.00;1.83;;;;;;;;;;10461492;28;20298;-69
2022/10/18 16:15:20;;;;;;;6.22;2.20;;;;;;;;;;10461434;28;20191;-69
2022/10/18 16:20:22;;;;;;;4.38;1.77;;;;;;;;;;10459156;28;20280;-69
2022/10/18 16:25:23;;;;;;;3.35;1.50;;;;;;;;;;10459751;28;20260;-69
2022/10/18 16:30:27;;;;;;;1.77;1.60;;;;;;;;;;10456665;28;20229;-69
2022/10/18 16:35:28;;;;;;;5.35;2.30;;;;;;;;;;10465948;28;20713;-70
2022/10/18 16:40:30;;;;;;;4.75;1.90;;;;;;;;;;10458851;28;20702;-70
2022/10/18 16:45:31;;;;;;;2.78;1.55;;;;;;;;;;10459488;28;20241;-70
2022/10/18 16:50:32;;;;;;;2.35;1.70;;;;;;;;;;10462678;28;20229;-69
2022/10/18 16:55:33;;;;;;;1.95;1.40;;;;;;;;;;10457895;28;20222;-69
2022/10/18 17:00:34;;;;;;;3.47;1.30;;;;;;;;;;10460667;28;20230;-70
2022/10/18 17:05:35;;;;;;;3.78;1.35;;;;;;;;;;10456805;28;20607;-70
2022/10/18 17:10:36;;;;;;;3.60;1.50;;;;;;;;;;10458488;28;20225;-70
2022/10/18 17:15:39;;;;;;;1.95;0.80;;;;;;;;;;10461440;28;20268;-70
2022/10/18 17:20:41;;;;;;;4.28;0.80;;;;;;;;;;10467298;28;20230;-70
2022/10/18 17:25:43;;;;;;;1.40;1.17;;;;;;;;;;10463934;28;20271;-68
2022/10/18 17:30:45;;;;;;;2.05;0.90;;;;;;;;;;10464528;28;20961;-68
2022/10/18 17:35:47;;;;;;;4.68;1.05;;;;;;;;;;10460667;28;20728;-70
2022/10/18 17:40:48;;;;;;;3.05;1.23;;;;;;;;;;10461247;28;20605;-69
2022/10/18 17:45:50;;;;;;;1.17;1.10;;;;;;;;;;10462076;28;20237;-69
2022/10/18 17:50:51;;;;;;;0.98;0.90;;;;;;;;;;10459928;28;20570;-69
2022/10/18 17:55:59;;;;;;;2.08;0.88;;;;;;;;;;10462124;28;20435;-69
2022/10/18 18:01:17;;;;;;;12.65;1.92;;;;;;;;;;10458898;28;21102;-69
2022/10/18 18:06:19;;;;;;;4.82;2.20;;;;;;;;;;10462525;28;24285;-69
2022/10/18 18:11:20;;;;;;;3.33;2.08;;;;;;;;;;10453338;28;20234;-69
2022/10/18 18:16:22;;;;;;;3.17;2.30;;;;;;;;;;10455636;28;20218;-69
2022/10/18 18:21:24;;;;;;;2.83;2.63;;;;;;;;;;10455442;28;20214;-71
2022/10/18 18:26:26;;;;;;;4.38;2.05;;;;;;;;;;10456110;28;20219;-71
2022/10/18 18:31:27;;;;;;;2.83;2.63;;;;;;;;;;10456618;28;20850;-72
2022/10/18 18:36:28;;;;;;;2.83;1.73;;;;;;;;;;10462522;28;20608;-71
2022/10/18 18:41:30;;;;;;;2.20;1.48;;;;;;;;;;10458212;28;20773;-68
2022/10/18 18:46:33;;;;;;;3.65;1.25;;;;;;;;;;10456852;28;20745;-71
2022/10/18 18:51:36;;;;;;;2.97;1.00;;;;;;;;;;10458709;28;20603;-71
2022/10/18 18:56:38;;;;;;;4.03;1.45;;;;;;;;;;10466885;28;20233;-71
2022/10/18 19:01:39;;;;;;;2.25;1.20;;;;;;;;;;10461490;28;20269;-68
2022/10/18 19:06:42;;;;;;;3.70;1.38;;;;;;;;;;10461929;28;20765;-69
2022/10/18 19:11:43;;;;;;;2.42;1.55;;;;;;;;;;10457762;28;20727;-69
2022/10/18 19:16:48;;;;;;;4.93;2.00;;;;;;;;;;10460883;28;20292;-70
2022/10/18 19:21:53;;;;;;;3.92;1.90;;;;;;;;;;10457493;28;20218;-70
2022/10/18 19:26:59;;;;;;;7.35;1.98;;;;;;;;;;10461884;28;20598;-70
2022/10/18 19:32:01;;;;;;;3.80;1.40;;;;;;;;;;10460514;28;20226;-70
2022/10/18 19:37:03;;;;;;;4.63;1.45;;;;;;;;;;10461484;28;20229;-71
2022/10/18 19:42:05;;;;;;;3.58;1.73;;;;;;;;;;10455529;28;20230;-69
2022/10/18 19:47:07;;;;;;;1.95;1.77;;;;;;;;;;10460638;28;20226;-69
2022/10/18 19:52:10;;;;;;;5.45;2.00;;;;;;;;;;10459018;28;20217;-68
2022/10/18 19:57:12;;;;;;;3.17;2.40;;;;;;;;;;10457402;28;20279;-69
2022/10/18 20:02:16;;;;;;;1.98;1.70;;;;;;;;;;10456859;28;20647;-72
2022/10/18 20:07:17;;;;;;;3.70;1.50;;;;;;;;;;10456551;28;20210;-68
2022/10/18 20:12:18;;;;;;;3.08;1.75;;;;;;;;;;10458235;28;20269;-69
2022/10/18 20:17:20;;;;;;;4.03;1.60;;;;;;;;;;10457396;28;20248;-69
2022/10/18 20:22:21;;;;;;;2.97;1.33;;;;;;;;;;10459772;28;20281;-69
2022/10/18 20:27:22;;;;;;;1.42;1.17;;;;;;;;;;10460323;28;20803;-69
2022/10/18 20:32:23;;;;;;;0.98;0.98;;;;;;;;;;10454223;28;20206;-69
2022/10/18 20:37:24;;;;;;;1.77;1.35;;;;;;;;;;10455262;28;20218;-69
2022/10/18 20:42:25;;;;;;;4.40;1.40;;;;;;;;;;10460603;28;20222;-70
2022/10/18 20:47:26;;;;;;;4.28;1.77;;;;;;;;;;10455142;28;20229;-69
2022/10/18 20:52:27;;;;;;;1.35;1.00;;;;;;;;;;10450987;28;20214;-69
2022/10/18 20:57:29;;;;;;;4.13;1.42;;;;;;;;;;10455438;28;20973;-69
2022/10/18 21:02:30;;;;;;;2.85;1.55;;;;;;;;;;10454526;28;20216;-71
2022/10/18 21:07:31;;;;;;;2.75;1.48;;;;;;;;;;10454588;28;20230;-71
2022/10/18 21:12:32;;;;;;;4.28;1.90;;;;;;;;;;10456502;28;20222;-69
2022/10/18 21:17:34;;;;;;;3.60;2.28;;;;;;;;;;10458285;28;20221;-71
2022/10/18 21:22:35;;;;;;;3.42;2.22;;;;;;;;;;10457177;28;20213;-71
2022/10/18 21:27:36;;;;;;;2.58;2.22;;;;;;;;;;10458425;28;20279;-71
2022/10/18 21:32:37;;;;;;;5.85;3.15;;;;;;;;;;10459018;28;20293;-71
2022/10/18 21:37:38;;;;;;;5.00;2.60;;;;;;;;;;10459622;28;20219;-71
2022/10/18 21:42:39;;;;;;;2.53;2.33;;;;;;;;;;10457002;28;20258;-70
2022/10/18 21:47:40;;;;;;;2.75;2.30;;;;;;;;;;10458547;28;20982;-71
2022/10/18 21:52:41;;;;;;;3.47;1.67;;;;;;;;;;10455952;28;20214;-68
2022/10/18 21:57:42;;;;;;;1.58;1.48;;;;;;;;;;10459369;28;20252;-68
2022/10/18 22:02:43;;;;;;;2.50;2.25;;;;;;;;;;10459650;28;20219;-69
2022/10/18 22:07:44;;;;;;;2.22;1.73;;;;;;;;;;10462119;28;20301;-69
2022/10/18 22:12:46;;;;;;;2.85;1.63;;;;;;;;;;10463656;28;20264;-69
2022/10/18 22:17:47;;;;;;;1.58;1.48;;;;;;;;;;10463266;28;20254;-68
2022/10/18 22:22:48;;;;;;;1.30;1.20;;;;;;;;;;10463774;28;20221;-69
2022/10/18 22:27:49;;;;;;;1.25;1.20;;;;;;;;;;10465070;28;20311;-69
2022/10/18 22:32:50;;;;;;;1.45;1.35;;;;;;;;;;10459850;28;20753;-69
2022/10/18 22:37:53;;;;;;;2.40;1.13;;;;;;;;;;10461909;28;20248;-69
2022/10/18 22:42:54;;;;;;;3.45;0.95;;;;;;;;;;10463914;28;20218;-69
2022/10/18 22:47:55;;;;;;;2.28;1.08;;;;;;;;;;10464723;28;20222;-69
2022/10/18 22:52:56;;;;;;;3.05;1.70;;;;;;;;;;10464986;28;20717;-69
2022/10/18 22:57:57;;;;;;;0.90;0.90;;;;;;;;;;10466117;28;20242;-69
2022/10/18 23:02:58;;;;;;;0.93;0.90;;;;;;;;;;10463394;28;20210;-69
2022/10/18 23:07:59;;;;;;;3.35;1.02;;;;;;;;;;10461516;28;20249;-70
2022/10/18 23:13:01;;;;;;;1.17;1.00;;;;;;;;;;10464112;28;20218;-69
2022/10/18 23:18:02;;;;;;;1.58;1.00;;;;;;;;;;10465338;28;20218;-67
2022/10/18 23:23:03;;;;;;;2.17;0.85;;;;;;;;;;10462849;28;20960;-68
2022/10/18 23:28:04;;;;;;;2.63;1.10;;;;;;;;;;10458302;28;20233;-69
2022/10/18 23:33:05;;;;;;;0.80;0.80;;;;;;;;;;10459808;28;20213;-69
2022/10/18 23:38:06;;;;;;;2.97;0.85;;;;;;;;;;10461742;28;20214;-68
2022/10/18 23:43:07;;;;;;;6.88;1.27;;;;;;;;;;10459083;28;20328;-69
2022/10/18 23:48:09;;;;;;;2.13;1.08;;;;;;;;;;10460279;28;20233;-69
2022/10/18 23:53:10;;;;;;;6.90;1.10;;;;;;;;;;10457670;28;20690;-69
2022/10/18 23:58:11;;;;;;;2.55;0.93;;;;;;;;;;10458214;28;20210;-70
